sensor_id;sensor_type;location;lat;lon;timestamp;P1;durP1;ratioP1;P2;durP2;ratioP2
41253;SDS011;26987;59.928;30.306;2022-11-09T00:00:04;1.55;;;0.20;;
41253;SDS011;26987;59.928;30.306;2022-11-09T00:02:32;0.60;;;0.25;;
41253;SDS011;26987;59.928;30.306;2022-11-09T00:05:15;1.73;;;0.40;;
41253;SDS011;26987;59.928;30.306;2022-11-09T00:07:46;0.70;;;0.20;;
41253;SDS011;26987;59.928;30.306;2022-11-09T00:10:18;1.70;;;0.30;;
41253;SDS011;26987;59.928;30.306;2022-11-09T00:12:46;0.45;;;0.30;;
41253;SDS011;26987;59.928;30.306;2022-11-09T00:15:14;0.80;;;0.20;;
41253;SDS011;26987;59.928;30.306;2022-11-09T00:17:46;2.25;;;0.30;;
41253;SDS011;26987;59.928;30.306;2022-11-09T00:20:14;1.98;;;0.30;;
41253;SDS011;26987;59.928;30.306;2022-11-09T00:22:48;1.30;;;0.20;;
41253;SDS011;26987;59.928;30.306;2022-11-09T00:25:20;0.57;;;0.10;;
41253;SDS011;26987;59.928;30.306;2022-11-09T00:27:48;0.52;;;0.13;;
41253;SDS011;26987;59.928;30.306;2022-11-09T00:30:18;0.43;;;0.15;;
41253;SDS011;26987;59.928;30.306;2022-11-09T00:32:49;1.02;;;0.28;;
41253;SDS011;26987;59.928;30.306;2022-11-09T00:35:25;1.65;;;0.40;;
41253;SDS011;26987;59.928;30.306;2022-11-09T00:37:58;1.05;;;0.22;;
41253;SDS011;26987;59.928;30.306;2022-11-09T00:40:27;0.88;;;0.30;;
41253;SDS011;26987;59.928;30.306;2022-11-09T00:42:56;0.80;;;0.30;;
41253;SDS011;26987;59.928;30.306;2022-11-09T00:45:24;1.27;;;0.30;;
41253;SDS011;26987;59.928;30.306;2022-11-09T00:47:52;0.32;;;0.20;;
41253;SDS011;26987;59.928;30.306;2022-11-09T00:50:20;1.38;;;0.20;;
41253;SDS011;26987;59.928;30.306;2022-11-09T00:52:48;0.68;;;0.25;;
41253;SDS011;26987;59.928;30.306;2022-11-09T00:55:19;0.35;;;0.10;;
41253;SDS011;26987;59.928;30.306;2022-11-09T00:57:53;1.08;;;0.20;;
41253;SDS011;26987;59.928;30.306;2022-11-09T01:00:23;0.60;;;0.10;;
41253;SDS011;26987;59.928;30.306;2022-11-09T01:02:52;1.35;;;0.20;;
41253;SDS011;26987;59.928;30.306;2022-11-09T01:05:20;0.82;;;0.25;;
41253;SDS011;26987;59.928;30.306;2022-11-09T01:07:49;0.65;;;0.10;;
41253;SDS011;26987;59.928;30.306;2022-11-09T01:10:22;0.98;;;0.20;;
41253;SDS011;26987;59.928;30.306;2022-11-09T01:12:50;0.10;;;0.10;;
41253;SDS011;26987;59.928;30.306;2022-11-09T01:15:19;0.43;;;0.20;;
41253;SDS011;26987;59.928;30.306;2022-11-09T01:17:47;0.40;;;0.22;;
41253;SDS011;26987;59.928;30.306;2022-11-09T01:20:16;1.08;;;0.17;;
41253;SDS011;26987;59.928;30.306;2022-11-09T01:22:44;0.73;;;0.25;;
41253;SDS011;26987;59.928;30.306;2022-11-09T01:25:12;0.95;;;0.30;;
41253;SDS011;26987;59.928;30.306;2022-11-09T01:27:54;2.10;;;0.40;;
41253;SDS011;26987;59.928;30.306;2022-11-09T01:30:53;6.30;;;0.90;;
41253;SDS011;26987;59.928;30.306;2022-11-09T01:33:23;1.45;;;0.50;;
41253;SDS011;26987;59.928;30.306;2022-11-09T01:35:54;3.05;;;0.50;;
41253;SDS011;26987;59.928;30.306;2022-11-09T01:38:31;1.15;;;0.40;;
41253;SDS011;26987;59.928;30.306;2022-11-09T01:41:07;1.63;;;0.50;;
41253;SDS011;26987;59.928;30.306;2022-11-09T01:44:06;0.85;;;0.38;;
41253;SDS011;26987;59.928;30.306;2022-11-09T01:46:41;1.30;;;0.43;;
41253;SDS011;26987;59.928;30.306;2022-11-09T01:49:18;5.60;;;0.32;;
41253;SDS011;26987;59.928;30.306;2022-11-09T01:51:51;0.70;;;0.25;;
41253;SDS011;26987;59.928;30.306;2022-11-09T01:54:25;2.28;;;0.40;;
41253;SDS011;26987;59.928;30.306;2022-11-09T01:57:17;1.88;;;0.40;;
41253;SDS011;26987;59.928;30.306;2022-11-09T01:59:49;2.50;;;0.30;;
41253;SDS011;26987;59.928;30.306;2022-11-09T02:02:22;0.65;;;0.38;;
41253;SDS011;26987;59.928;30.306;2022-11-09T02:04:54;0.40;;;0.22;;
41253;SDS011;26987;59.928;30.306;2022-11-09T02:07:27;0.40;;;0.20;;
41253;SDS011;26987;59.928;30.306;2022-11-09T02:09:59;3.05;;;1.00;;
41253;SDS011;26987;59.928;30.306;2022-11-09T02:12:32;1.10;;;0.30;;
41253;SDS011;26987;59.928;30.306;2022-11-09T02:15:04;1.27;;;0.40;;
41253;SDS011;26987;59.928;30.306;2022-11-09T02:17:47;1.08;;;0.40;;
41253;SDS011;26987;59.928;30.306;2022-11-09T02:20:25;0.60;;;0.40;;
41253;SDS011;26987;59.928;30.306;2022-11-09T02:22:54;1.65;;;0.50;;
41253;SDS011;26987;59.928;30.306;2022-11-09T02:25:33;0.73;;;0.38;;
41253;SDS011;26987;59.928;30.306;2022-11-09T02:28:02;1.92;;;0.70;;
41253;SDS011;26987;59.928;30.306;2022-11-09T02:30:30;1.83;;;0.40;;
41253;SDS011;26987;59.928;30.306;2022-11-09T02:33:15;2.05;;;0.50;;
41253;SDS011;26987;59.928;30.306;2022-11-09T02:35:52;2.47;;;0.93;;
41253;SDS011;26987;59.928;30.306;2022-11-09T02:38:44;0.88;;;0.40;;
41253;SDS011;26987;59.928;30.306;2022-11-09T02:41:22;3.30;;;0.70;;
41253;SDS011;26987;59.928;30.306;2022-11-09T02:43:51;0.98;;;0.60;;
41253;SDS011;26987;59.928;30.306;2022-11-09T02:46:30;1.95;;;0.60;;
41253;SDS011;26987;59.928;30.306;2022-11-09T02:49:00;1.00;;;0.65;;
41253;SDS011;26987;59.928;30.306;2022-11-09T02:54:13;2.30;;;0.73;;
41253;SDS011;26987;59.928;30.306;2022-11-09T02:56:42;4.00;;;0.80;;
41253;SDS011;26987;59.928;30.306;2022-11-09T02:59:10;0.70;;;0.50;;
41253;SDS011;26987;59.928;30.306;2022-11-09T03:01:38;0.95;;;0.50;;
41253;SDS011;26987;59.928;30.306;2022-11-09T03:04:29;6.15;;;0.70;;
41253;SDS011;26987;59.928;30.306;2022-11-09T03:07:12;1.30;;;0.45;;
41253;SDS011;26987;59.928;30.306;2022-11-09T03:09:59;2.65;;;0.70;;
41253;SDS011;26987;59.928;30.306;2022-11-09T03:12:29;1.58;;;0.75;;
41253;SDS011;26987;59.928;30.306;2022-11-09T03:15:10;1.17;;;0.70;;
41253;SDS011;26987;59.928;30.306;2022-11-09T03:17:42;2.65;;;0.50;;
41253;SDS011;26987;59.928;30.306;2022-11-09T03:20:10;1.27;;;0.70;;
41253;SDS011;26987;59.928;30.306;2022-11-09T03:25:30;2.28;;;0.90;;
41253;SDS011;26987;59.928;30.306;2022-11-09T03:27:59;2.17;;;0.80;;
41253;SDS011;26987;59.928;30.306;2022-11-09T03:30:43;2.88;;;0.80;;
41253;SDS011;26987;59.928;30.306;2022-11-09T03:33:30;1.95;;;0.70;;
41253;SDS011;26987;59.928;30.306;2022-11-09T03:35:59;2.50;;;0.70;;
41253;SDS011;26987;59.928;30.306;2022-11-09T03:38:29;3.65;;;1.00;;
41253;SDS011;26987;59.928;30.306;2022-11-09T03:40:57;2.72;;;0.70;;
41253;SDS011;26987;59.928;30.306;2022-11-09T03:43:27;1.83;;;0.88;;
41253;SDS011;26987;59.928;30.306;2022-11-09T03:46:00;3.13;;;0.88;;
41253;SDS011;26987;59.928;30.306;2022-11-09T03:48:28;3.80;;;0.80;;
41253;SDS011;26987;59.928;30.306;2022-11-09T03:50:56;2.55;;;1.00;;
41253;SDS011;26987;59.928;30.306;2022-11-09T03:53:23;4.88;;;1.20;;
41253;SDS011;26987;59.928;30.306;2022-11-09T03:55:53;2.65;;;1.13;;
41253;SDS011;26987;59.928;30.306;2022-11-09T03:58:30;5.32;;;1.50;;
41253;SDS011;26987;59.928;30.306;2022-11-09T04:00:59;2.42;;;1.42;;
41253;SDS011;26987;59.928;30.306;2022-11-09T04:03:27;4.85;;;1.45;;
41253;SDS011;26987;59.928;30.306;2022-11-09T04:05:56;4.10;;;1.50;;
41253;SDS011;26987;59.928;30.306;2022-11-09T04:08:25;3.30;;;1.35;;
41253;SDS011;26987;59.928;30.306;2022-11-09T04:10:54;4.40;;;1.55;;
41253;SDS011;26987;59.928;30.306;2022-11-09T04:13:22;6.63;;;1.70;;
41253;SDS011;26987;59.928;30.306;2022-11-09T04:15:50;3.85;;;2.10;;
41253;SDS011;26987;59.928;30.306;2022-11-09T04:18:22;5.35;;;2.60;;
41253;SDS011;26987;59.928;30.306;2022-11-09T04:21:05;6.85;;;2.22;;
41253;SDS011;26987;59.928;30.306;2022-11-09T04:23:40;11.20;;;2.80;;
41253;SDS011;26987;59.928;30.306;2022-11-09T04:26:24;6.55;;;2.83;;
41253;SDS011;26987;59.928;30.306;2022-11-09T04:28:56;7.88;;;2.65;;
41253;SDS011;26987;59.928;30.306;2022-11-09T04:31:24;7.20;;;3.42;;
41253;SDS011;26987;59.928;30.306;2022-11-09T04:33:52;7.35;;;3.65;;
41253;SDS011;26987;59.928;30.306;2022-11-09T04:36:22;5.63;;;2.70;;
41253;SDS011;26987;59.928;30.306;2022-11-09T04:38:50;5.82;;;2.50;;
41253;SDS011;26987;59.928;30.306;2022-11-09T04:44:16;5.30;;;2.50;;
41253;SDS011;26987;59.928;30.306;2022-11-09T04:46:44;7.45;;;3.00;;
41253;SDS011;26987;59.928;30.306;2022-11-09T04:49:12;8.48;;;2.97;;
41253;SDS011;26987;59.928;30.306;2022-11-09T04:51:39;9.25;;;3.30;;
41253;SDS011;26987;59.928;30.306;2022-11-09T04:54:07;8.40;;;3.20;;
41253;SDS011;26987;59.928;30.306;2022-11-09T04:59:11;9.50;;;3.72;;
41253;SDS011;26987;59.928;30.306;2022-11-09T05:01:40;8.85;;;4.22;;
41253;SDS011;26987;59.928;30.306;2022-11-09T05:04:23;6.85;;;4.00;;
41253;SDS011;26987;59.928;30.306;2022-11-09T05:06:51;10.82;;;5.00;;
41253;SDS011;26987;59.928;30.306;2022-11-09T05:09:19;10.05;;;4.15;;
41253;SDS011;26987;59.928;30.306;2022-11-09T05:11:49;7.93;;;4.07;;
41253;SDS011;26987;59.928;30.306;2022-11-09T05:14:17;10.90;;;4.78;;
41253;SDS011;26987;59.928;30.306;2022-11-09T05:16:46;9.10;;;4.32;;
41253;SDS011;26987;59.928;30.306;2022-11-09T05:19:17;10.90;;;5.30;;
41253;SDS011;26987;59.928;30.306;2022-11-09T05:21:44;7.10;;;4.50;;
41253;SDS011;26987;59.928;30.306;2022-11-09T05:24:12;10.65;;;5.63;;
41253;SDS011;26987;59.928;30.306;2022-11-09T05:26:45;7.20;;;4.38;;
41253;SDS011;26987;59.928;30.306;2022-11-09T05:29:14;12.02;;;4.88;;
41253;SDS011;26987;59.928;30.306;2022-11-09T05:31:58;10.88;;;5.15;;
41253;SDS011;26987;59.928;30.306;2022-11-09T05:34:28;7.85;;;5.00;;
41253;SDS011;26987;59.928;30.306;2022-11-09T05:36:58;12.30;;;6.40;;
41253;SDS011;26987;59.928;30.306;2022-11-09T05:39:55;9.85;;;5.70;;
41253;SDS011;26987;59.928;30.306;2022-11-09T05:42:23;15.35;;;7.07;;
41253;SDS011;26987;59.928;30.306;2022-11-09T05:44:55;17.90;;;8.27;;
41253;SDS011;26987;59.928;30.306;2022-11-09T05:47:26;14.85;;;6.60;;
41253;SDS011;26987;59.928;30.306;2022-11-09T05:49:54;12.98;;;6.75;;
41253;SDS011;26987;59.928;30.306;2022-11-09T05:52:25;9.73;;;6.22;;
41253;SDS011;26987;59.928;30.306;2022-11-09T05:54:54;13.52;;;7.05;;
41253;SDS011;26987;59.928;30.306;2022-11-09T05:57:22;14.35;;;6.75;;
41253;SDS011;26987;59.928;30.306;2022-11-09T05:59:53;14.25;;;6.75;;
41253;SDS011;26987;59.928;30.306;2022-11-09T06:02:23;11.07;;;6.45;;
41253;SDS011;26987;59.928;30.306;2022-11-09T06:04:51;11.15;;;6.28;;
41253;SDS011;26987;59.928;30.306;2022-11-09T06:07:24;11.43;;;6.20;;
41253;SDS011;26987;59.928;30.306;2022-11-09T06:09:55;12.20;;;6.72;;
41253;SDS011;26987;59.928;30.306;2022-11-09T06:12:23;17.33;;;7.13;;
41253;SDS011;26987;59.928;30.306;2022-11-09T06:14:58;11.77;;;5.85;;
41253;SDS011;26987;59.928;30.306;2022-11-09T06:17:26;9.13;;;5.53;;
41253;SDS011;26987;59.928;30.306;2022-11-09T06:19:59;12.93;;;5.65;;
41253;SDS011;26987;59.928;30.306;2022-11-09T06:22:27;10.07;;;5.70;;
41253;SDS011;26987;59.928;30.306;2022-11-09T06:24:56;14.68;;;5.70;;
41253;SDS011;26987;59.928;30.306;2022-11-09T06:27:26;13.95;;;5.65;;
41253;SDS011;26987;59.928;30.306;2022-11-09T06:30:02;8.95;;;5.65;;
41253;SDS011;26987;59.928;30.306;2022-11-09T06:32:32;8.25;;;5.13;;
41253;SDS011;26987;59.928;30.306;2022-11-09T06:35:00;9.57;;;6.22;;
41253;SDS011;26987;59.928;30.306;2022-11-09T06:37:28;10.70;;;6.15;;
41253;SDS011;26987;59.928;30.306;2022-11-09T06:39:58;13.73;;;6.45;;
41253;SDS011;26987;59.928;30.306;2022-11-09T06:42:32;13.77;;;6.47;;
41253;SDS011;26987;59.928;30.306;2022-11-09T06:45:00;10.98;;;6.45;;
41253;SDS011;26987;59.928;30.306;2022-11-09T06:48:04;14.60;;;9.05;;
41253;SDS011;26987;59.928;30.306;2022-11-09T06:50:32;14.57;;;7.80;;
41253;SDS011;26987;59.928;30.306;2022-11-09T06:53:12;11.40;;;7.03;;
41253;SDS011;26987;59.928;30.306;2022-11-09T06:55:41;11.82;;;6.43;;
41253;SDS011;26987;59.928;30.306;2022-11-09T06:58:19;9.80;;;6.13;;
41253;SDS011;26987;59.928;30.306;2022-11-09T07:00:47;7.57;;;5.13;;
41253;SDS011;26987;59.928;30.306;2022-11-09T07:03:33;11.38;;;5.80;;
41253;SDS011;26987;59.928;30.306;2022-11-09T07:06:23;9.07;;;5.90;;
41253;SDS011;26987;59.928;30.306;2022-11-09T07:09:04;10.23;;;6.05;;
41253;SDS011;26987;59.928;30.306;2022-11-09T07:11:33;8.07;;;4.88;;
41253;SDS011;26987;59.928;30.306;2022-11-09T07:14:01;11.50;;;5.10;;
41253;SDS011;26987;59.928;30.306;2022-11-09T07:16:35;12.57;;;5.22;;
41253;SDS011;26987;59.928;30.306;2022-11-09T07:19:05;11.60;;;6.00;;
41253;SDS011;26987;59.928;30.306;2022-11-09T07:21:34;11.10;;;4.88;;
41253;SDS011;26987;59.928;30.306;2022-11-09T07:24:02;12.55;;;6.00;;
41253;SDS011;26987;59.928;30.306;2022-11-09T07:26:49;12.55;;;6.80;;
41253;SDS011;26987;59.928;30.306;2022-11-09T07:29:19;12.13;;;7.03;;
41253;SDS011;26987;59.928;30.306;2022-11-09T07:31:47;16.02;;;7.43;;
41253;SDS011;26987;59.928;30.306;2022-11-09T07:34:25;14.45;;;7.15;;
41253;SDS011;26987;59.928;30.306;2022-11-09T07:37:01;12.05;;;7.75;;
41253;SDS011;26987;59.928;30.306;2022-11-09T07:39:31;15.57;;;8.85;;
41253;SDS011;26987;59.928;30.306;2022-11-09T07:41:59;12.20;;;7.70;;
41253;SDS011;26987;59.928;30.306;2022-11-09T07:45:09;20.08;;;7.32;;
41253;SDS011;26987;59.928;30.306;2022-11-09T07:47:40;13.00;;;7.15;;
41253;SDS011;26987;59.928;30.306;2022-11-09T07:50:11;10.20;;;6.90;;
41253;SDS011;26987;59.928;30.306;2022-11-09T07:52:41;11.07;;;6.68;;
41253;SDS011;26987;59.928;30.306;2022-11-09T07:55:10;13.55;;;7.70;;
41253;SDS011;26987;59.928;30.306;2022-11-09T07:57:47;13.13;;;6.60;;
41253;SDS011;26987;59.928;30.306;2022-11-09T08:00:27;14.23;;;6.80;;
41253;SDS011;26987;59.928;30.306;2022-11-09T08:02:56;14.60;;;6.68;;
41253;SDS011;26987;59.928;30.306;2022-11-09T08:05:26;10.63;;;6.25;;
41253;SDS011;26987;59.928;30.306;2022-11-09T08:08:20;10.73;;;5.73;;
41253;SDS011;26987;59.928;30.306;2022-11-09T08:11:00;10.18;;;5.45;;
41253;SDS011;26987;59.928;30.306;2022-11-09T08:13:29;12.93;;;5.38;;
41253;SDS011;26987;59.928;30.306;2022-11-09T08:16:06;10.80;;;6.00;;
41253;SDS011;26987;59.928;30.306;2022-11-09T08:18:35;12.18;;;5.70;;
41253;SDS011;26987;59.928;30.306;2022-11-09T08:21:08;10.77;;;5.72;;
41253;SDS011;26987;59.928;30.306;2022-11-09T08:23:38;11.55;;;6.18;;
41253;SDS011;26987;59.928;30.306;2022-11-09T08:26:21;12.77;;;6.35;;
41253;SDS011;26987;59.928;30.306;2022-11-09T08:28:49;9.90;;;6.13;;
41253;SDS011;26987;59.928;30.306;2022-11-09T08:31:19;12.93;;;6.80;;
41253;SDS011;26987;59.928;30.306;2022-11-09T08:33:47;12.30;;;7.20;;
41253;SDS011;26987;59.928;30.306;2022-11-09T08:36:30;15.07;;;7.47;;
41253;SDS011;26987;59.928;30.306;2022-11-09T08:39:01;19.25;;;9.38;;
41253;SDS011;26987;59.928;30.306;2022-11-09T08:41:36;15.10;;;8.82;;
41253;SDS011;26987;59.928;30.306;2022-11-09T08:44:25;15.45;;;8.73;;
41253;SDS011;26987;59.928;30.306;2022-11-09T08:46:58;14.20;;;8.73;;
41253;SDS011;26987;59.928;30.306;2022-11-09T08:49:26;22.40;;;10.77;;
41253;SDS011;26987;59.928;30.306;2022-11-09T08:52:01;15.25;;;10.43;;
41253;SDS011;26987;59.928;30.306;2022-11-09T08:54:29;21.75;;;12.90;;
41253;SDS011;26987;59.928;30.306;2022-11-09T08:56:57;24.23;;;13.45;;
41253;SDS011;26987;59.928;30.306;2022-11-09T08:59:35;26.40;;;14.38;;
41253;SDS011;26987;59.928;30.306;2022-11-09T09:02:19;25.15;;;14.35;;
41253;SDS011;26987;59.928;30.306;2022-11-09T09:04:47;28.33;;;16.48;;
41253;SDS011;26987;59.928;30.306;2022-11-09T09:07:17;24.95;;;14.38;;
41253;SDS011;26987;59.928;30.306;2022-11-09T09:09:47;33.50;;;14.60;;
41253;SDS011;26987;59.928;30.306;2022-11-09T09:12:15;24.58;;;15.40;;
41253;SDS011;26987;59.928;30.306;2022-11-09T09:14:52;28.48;;;14.98;;
41253;SDS011;26987;59.928;30.306;2022-11-09T09:17:38;31.83;;;15.85;;
41253;SDS011;26987;59.928;30.306;2022-11-09T09:20:14;27.98;;;16.58;;
41253;SDS011;26987;59.928;30.306;2022-11-09T09:22:52;27.25;;;14.80;;
41253;SDS011;26987;59.928;30.306;2022-11-09T09:25:23;35.78;;;17.55;;
41253;SDS011;26987;59.928;30.306;2022-11-09T09:28:05;27.73;;;15.32;;
41253;SDS011;26987;59.928;30.306;2022-11-09T09:30:33;32.15;;;16.35;;
41253;SDS011;26987;59.928;30.306;2022-11-09T09:33:00;26.63;;;15.98;;
41253;SDS011;26987;59.928;30.306;2022-11-09T09:35:38;29.05;;;16.20;;
41253;SDS011;26987;59.928;30.306;2022-11-09T09:38:10;30.45;;;15.45;;
41253;SDS011;26987;59.928;30.306;2022-11-09T09:40:42;23.00;;;13.55;;
41253;SDS011;26987;59.928;30.306;2022-11-09T09:43:23;26.67;;;14.88;;
41253;SDS011;26987;59.928;30.306;2022-11-09T09:45:55;29.23;;;13.73;;
41253;SDS011;26987;59.928;30.306;2022-11-09T09:48:26;24.45;;;12.73;;
41253;SDS011;26987;59.928;30.306;2022-11-09T09:51:16;24.38;;;11.48;;
41253;SDS011;26987;59.928;30.306;2022-11-09T09:56:40;22.33;;;10.30;;
41253;SDS011;26987;59.928;30.306;2022-11-09T09:59:31;19.92;;;9.93;;
41253;SDS011;26987;59.928;30.306;2022-11-09T10:02:02;18.75;;;11.00;;
41253;SDS011;26987;59.928;30.306;2022-11-09T10:04:32;25.10;;;11.60;;
41253;SDS011;26987;59.928;30.306;2022-11-09T10:07:04;24.55;;;10.43;;
41253;SDS011;26987;59.928;30.306;2022-11-09T10:09:55;15.93;;;7.60;;
41253;SDS011;26987;59.928;30.306;2022-11-09T10:13:03;17.65;;;7.80;;
41253;SDS011;26987;59.928;30.306;2022-11-09T10:15:53;20.63;;;9.10;;
41253;SDS011;26987;59.928;30.306;2022-11-09T10:18:31;13.68;;;8.05;;
41253;SDS011;26987;59.928;30.306;2022-11-09T10:21:10;16.83;;;8.32;;
41253;SDS011;26987;59.928;30.306;2022-11-09T10:23:54;24.85;;;7.97;;
41253;SDS011;26987;59.928;30.306;2022-11-09T10:26:55;24.73;;;8.90;;
41253;SDS011;26987;59.928;30.306;2022-11-09T10:29:30;19.33;;;9.43;;
41253;SDS011;26987;59.928;30.306;2022-11-09T10:32:07;22.35;;;8.63;;
41253;SDS011;26987;59.928;30.306;2022-11-09T10:34:53;20.77;;;10.38;;
41253;SDS011;26987;59.928;30.306;2022-11-09T10:37:30;26.10;;;9.88;;
41253;SDS011;26987;59.928;30.306;2022-11-09T10:40:04;22.05;;;8.35;;
41253;SDS011;26987;59.928;30.306;2022-11-09T10:43:03;16.33;;;8.55;;
41253;SDS011;26987;59.928;30.306;2022-11-09T10:46:04;20.13;;;8.02;;
41253;SDS011;26987;59.928;30.306;2022-11-09T10:49:16;14.73;;;6.43;;
41253;SDS011;26987;59.928;30.306;2022-11-09T10:52:03;12.98;;;6.30;;
41253;SDS011;26987;59.928;30.306;2022-11-09T10:54:50;12.82;;;5.35;;
41253;SDS011;26987;59.928;30.306;2022-11-09T10:57:37;13.07;;;6.43;;
41253;SDS011;26987;59.928;30.306;2022-11-09T11:00:36;17.35;;;5.70;;
41253;SDS011;26987;59.928;30.306;2022-11-09T11:06:28;15.30;;;5.95;;
41253;SDS011;26987;59.928;30.306;2022-11-09T11:09:21;13.73;;;5.15;;
41253;SDS011;26987;59.928;30.306;2022-11-09T11:12:12;11.43;;;5.25;;
41253;SDS011;26987;59.928;30.306;2022-11-09T11:15:17;12.50;;;5.00;;
41253;SDS011;26987;59.928;30.306;2022-11-09T11:18:14;17.98;;;5.68;;
41253;SDS011;26987;59.928;30.306;2022-11-09T11:21:04;12.13;;;4.97;;
41253;SDS011;26987;59.928;30.306;2022-11-09T11:24:04;17.60;;;6.00;;
41253;SDS011;26987;59.928;30.306;2022-11-09T11:27:00;13.13;;;4.55;;
41253;SDS011;26987;59.928;30.306;2022-11-09T11:30:02;10.90;;;5.05;;
41253;SDS011;26987;59.928;30.306;2022-11-09T11:33:10;11.82;;;5.50;;
41253;SDS011;26987;59.928;30.306;2022-11-09T11:36:03;12.35;;;5.35;;
41253;SDS011;26987;59.928;30.306;2022-11-09T11:39:00;11.73;;;5.57;;
41253;SDS011;26987;59.928;30.306;2022-11-09T11:42:01;15.52;;;6.43;;
41253;SDS011;26987;59.928;30.306;2022-11-09T11:45:15;15.27;;;5.60;;
41253;SDS011;26987;59.928;30.306;2022-11-09T11:48:21;19.77;;;5.97;;
41253;SDS011;26987;59.928;30.306;2022-11-09T11:51:51;23.30;;;8.63;;
41253;SDS011;26987;59.928;30.306;2022-11-09T11:54:48;21.88;;;6.63;;
41253;SDS011;26987;59.928;30.306;2022-11-09T11:57:53;15.32;;;5.50;;
41253;SDS011;26987;59.928;30.306;2022-11-09T12:00:48;9.10;;;5.10;;
41253;SDS011;26987;59.928;30.306;2022-11-09T12:03:54;14.93;;;5.28;;
41253;SDS011;26987;59.928;30.306;2022-11-09T12:07:07;14.73;;;5.80;;
41253;SDS011;26987;59.928;30.306;2022-11-09T12:10:15;12.68;;;5.75;;
41253;SDS011;26987;59.928;30.306;2022-11-09T12:13:18;11.25;;;4.88;;
41253;SDS011;26987;59.928;30.306;2022-11-09T12:16:19;15.20;;;5.03;;
41253;SDS011;26987;59.928;30.306;2022-11-09T12:22:28;10.88;;;5.22;;
41253;SDS011;26987;59.928;30.306;2022-11-09T12:25:26;15.55;;;5.15;;
41253;SDS011;26987;59.928;30.306;2022-11-09T12:28:31;16.73;;;5.25;;
41253;SDS011;26987;59.928;30.306;2022-11-09T12:31:45;9.68;;;5.18;;
41253;SDS011;26987;59.928;30.306;2022-11-09T12:34:51;16.80;;;4.90;;
41253;SDS011;26987;59.928;30.306;2022-11-09T12:37:44;18.15;;;5.55;;
41253;SDS011;26987;59.928;30.306;2022-11-09T12:40:49;11.07;;;5.25;;
41253;SDS011;26987;59.928;30.306;2022-11-09T12:43:44;18.90;;;6.65;;
41253;SDS011;26987;59.928;30.306;2022-11-09T12:46:41;15.85;;;6.82;;
41253;SDS011;26987;59.928;30.306;2022-11-09T12:49:33;15.45;;;6.47;;
41253;SDS011;26987;59.928;30.306;2022-11-09T12:52:27;13.20;;;5.85;;
41253;SDS011;26987;59.928;30.306;2022-11-09T12:55:26;14.60;;;5.35;;
41253;SDS011;26987;59.928;30.306;2022-11-09T12:58:21;12.10;;;5.65;;
41253;SDS011;26987;59.928;30.306;2022-11-09T13:01:10;15.90;;;6.28;;
41253;SDS011;26987;59.928;30.306;2022-11-09T13:04:18;10.95;;;5.93;;
41253;SDS011;26987;59.928;30.306;2022-11-09T13:10:29;11.13;;;5.55;;
41253;SDS011;26987;59.928;30.306;2022-11-09T13:13:20;19.20;;;6.78;;
41253;SDS011;26987;59.928;30.306;2022-11-09T13:16:09;10.88;;;5.80;;
41253;SDS011;26987;59.928;30.306;2022-11-09T13:19:02;14.52;;;6.43;;
41253;SDS011;26987;59.928;30.306;2022-11-09T13:29:19;15.20;;;6.13;;
41253;SDS011;26987;59.928;30.306;2022-11-09T13:38:42;14.98;;;6.15;;
41253;SDS011;26987;59.928;30.306;2022-11-09T13:44:41;11.60;;;5.40;;
41253;SDS011;26987;59.928;30.306;2022-11-09T13:47:38;12.95;;;5.30;;
41253;SDS011;26987;59.928;30.306;2022-11-09T13:50:49;10.90;;;6.50;;
41253;SDS011;26987;59.928;30.306;2022-11-09T13:53:56;13.68;;;6.45;;
41253;SDS011;26987;59.928;30.306;2022-11-09T13:56:59;13.95;;;6.47;;
41253;SDS011;26987;59.928;30.306;2022-11-09T13:59:50;11.20;;;5.85;;
41253;SDS011;26987;59.928;30.306;2022-11-09T14:02:37;11.00;;;6.32;;
41253;SDS011;26987;59.928;30.306;2022-11-09T14:05:24;11.65;;;6.18;;
41253;SDS011;26987;59.928;30.306;2022-11-09T14:08:15;12.63;;;5.18;;
41253;SDS011;26987;59.928;30.306;2022-11-09T14:14:26;11.50;;;5.30;;
41253;SDS011;26987;59.928;30.306;2022-11-09T14:17:49;10.90;;;5.93;;
41253;SDS011;26987;59.928;30.306;2022-11-09T14:20:49;10.63;;;6.00;;
41253;SDS011;26987;59.928;30.306;2022-11-09T14:23:46;10.57;;;5.10;;
41253;SDS011;26987;59.928;30.306;2022-11-09T14:26:33;15.80;;;5.38;;
41253;SDS011;26987;59.928;30.306;2022-11-09T14:33:18;10.15;;;5.40;;
41253;SDS011;26987;59.928;30.306;2022-11-09T14:36:10;13.52;;;6.03;;
41253;SDS011;26987;59.928;30.306;2022-11-09T14:39:02;7.63;;;4.85;;
41253;SDS011;26987;59.928;30.306;2022-11-09T14:42:01;10.52;;;4.80;;
41253;SDS011;26987;59.928;30.306;2022-11-09T14:44:53;7.05;;;4.55;;
41253;SDS011;26987;59.928;30.306;2022-11-09T14:47:50;8.07;;;5.50;;
41253;SDS011;26987;59.928;30.306;2022-11-09T14:50:45;7.13;;;4.43;;
41253;SDS011;26987;59.928;30.306;2022-11-09T14:53:34;8.70;;;4.65;;
41253;SDS011;26987;59.928;30.306;2022-11-09T14:56:40;8.27;;;4.30;;
41253;SDS011;26987;59.928;30.306;2022-11-09T14:59:30;8.85;;;4.40;;
41253;SDS011;26987;59.928;30.306;2022-11-09T15:02:20;10.07;;;4.57;;
41253;SDS011;26987;59.928;30.306;2022-11-09T15:08:25;9.45;;;4.57;;
41253;SDS011;26987;59.928;30.306;2022-11-09T15:11:29;12.70;;;4.95;;
41253;SDS011;26987;59.928;30.306;2022-11-09T15:14:21;9.32;;;4.82;;
41253;SDS011;26987;59.928;30.306;2022-11-09T15:17:28;7.15;;;5.30;;
41253;SDS011;26987;59.928;30.306;2022-11-09T15:20:26;7.60;;;4.35;;
41253;SDS011;26987;59.928;30.306;2022-11-09T15:23:40;9.07;;;5.35;;
41253;SDS011;26987;59.928;30.306;2022-11-09T15:26:39;8.07;;;5.13;;
41253;SDS011;26987;59.928;30.306;2022-11-09T15:29:36;10.55;;;4.90;;
41253;SDS011;26987;59.928;30.306;2022-11-09T15:35:26;9.05;;;5.18;;
41253;SDS011;26987;59.928;30.306;2022-11-09T15:38:26;9.63;;;5.63;;
41253;SDS011;26987;59.928;30.306;2022-11-09T15:44:22;11.98;;;5.90;;
41253;SDS011;26987;59.928;30.306;2022-11-09T15:47:18;10.63;;;5.43;;
41253;SDS011;26987;59.928;30.306;2022-11-09T15:50:15;11.38;;;5.70;;
41253;SDS011;26987;59.928;30.306;2022-11-09T15:53:24;11.40;;;6.23;;
41253;SDS011;26987;59.928;30.306;2022-11-09T15:56:13;10.02;;;5.28;;
41253;SDS011;26987;59.928;30.306;2022-11-09T15:59:01;13.10;;;6.60;;
41253;SDS011;26987;59.928;30.306;2022-11-09T16:01:48;11.80;;;5.80;;
41253;SDS011;26987;59.928;30.306;2022-11-09T16:04:48;10.50;;;5.78;;
41253;SDS011;26987;59.928;30.306;2022-11-09T16:07:48;12.65;;;6.00;;
41253;SDS011;26987;59.928;30.306;2022-11-09T16:10:37;11.02;;;5.38;;
41253;SDS011;26987;59.928;30.306;2022-11-09T16:16:14;8.40;;;5.65;;
41253;SDS011;26987;59.928;30.306;2022-11-09T16:19:03;13.20;;;6.72;;
41253;SDS011;26987;59.928;30.306;2022-11-09T16:21:50;11.70;;;6.57;;
41253;SDS011;26987;59.928;30.306;2022-11-09T16:24:37;9.18;;;5.85;;
41253;SDS011;26987;59.928;30.306;2022-11-09T16:27:25;10.45;;;6.10;;
41253;SDS011;26987;59.928;30.306;2022-11-09T16:30:46;14.30;;;6.47;;
41253;SDS011;26987;59.928;30.306;2022-11-09T16:33:38;9.90;;;5.93;;
41253;SDS011;26987;59.928;30.306;2022-11-09T16:36:25;14.85;;;7.47;;
41253;SDS011;26987;59.928;30.306;2022-11-09T16:39:23;9.50;;;6.45;;
41253;SDS011;26987;59.928;30.306;2022-11-09T16:42:21;14.18;;;7.35;;
41253;SDS011;26987;59.928;30.306;2022-11-09T16:45:12;9.40;;;6.85;;